createdAt,value
2019-01-24T00:00:39.294Z,10.80
2019-01-24T00:03:06.039Z,9.63
2019-01-24T00:05:32.003Z,9.53
2019-01-24T00:07:58.006Z,9.03
2019-01-24T00:10:23.983Z,10.33
2019-01-24T00:12:49.996Z,10.40
2019-01-24T00:15:15.964Z,11.67
2019-01-24T00:17:42.664Z,9.23
2019-01-24T00:20:08.636Z,9.87
2019-01-24T00:22:34.590Z,10.60
2019-01-24T00:25:01.330Z,11.77
2019-01-24T00:27:27.310Z,10.60
2019-01-24T00:29:54.054Z,10.53
2019-01-24T00:32:20.752Z,9.73
2019-01-24T00:34:46.744Z,12.90
2019-01-24T00:37:12.725Z,9.87
2019-01-24T00:39:39.469Z,11.47
2019-01-24T00:42:05.419Z,10.23
2019-01-24T00:44:31.405Z,9.10
2019-01-24T00:46:57.368Z,11.17
2019-01-24T00:49:23.391Z,10.07
2019-01-24T00:51:49.353Z,12.40
2019-01-24T00:54:15.352Z,11.70
2019-01-24T00:56:41.327Z,10.87
2019-01-24T00:59:07.304Z,10.33
2019-01-24T01:01:33.319Z,9.73
2019-01-24T01:03:59.278Z,9.60
2019-01-24T01:06:25.269Z,11.47
2019-01-24T01:08:51.252Z,9.77
2019-01-24T01:11:17.268Z,9.70
2019-01-24T01:13:43.975Z,10.83
2019-01-24T01:16:09.960Z,8.20
2019-01-24T01:18:36.641Z,10.43
2019-01-24T01:21:02.660Z,10.47
2019-01-24T01:23:28.619Z,11.90
2019-01-24T01:25:55.350Z,10.90
2019-01-24T01:28:21.334Z,8.97
2019-01-24T01:30:47.373Z,9.13
2019-01-24T01:33:13.338Z,10.60
2019-01-24T01:35:40.059Z,10.43
2019-01-24T01:38:06.772Z,11.17
2019-01-24T01:40:32.728Z,9.33
2019-01-24T01:42:58.764Z,13.13
2019-01-24T01:45:25.465Z,12.47
2019-01-24T01:47:51.473Z,10.40
2019-01-24T01:50:17.503Z,10.00
2019-01-24T01:52:43.505Z,9.50
2019-01-24T01:55:09.470Z,10.70
2019-01-24T01:57:35.485Z,11.03
2019-01-24T02:00:01.445Z,10.33
2019-01-24T02:02:28.174Z,13.07
2019-01-24T02:04:54.120Z,12.10
2019-01-24T02:07:20.148Z,9.33
2019-01-24T02:09:46.133Z,9.77
2019-01-24T02:12:12.892Z,11.47
2019-01-24T02:14:38.900Z,11.53
2019-01-24T02:17:04.846Z,11.70
2019-01-24T02:19:30.833Z,11.80
2019-01-24T02:21:56.795Z,10.50
2019-01-24T02:24:22.785Z,11.47
2019-01-24T02:26:49.502Z,10.77
2019-01-24T02:29:15.488Z,10.50
2019-01-24T02:31:42.188Z,10.43
2019-01-24T02:34:08.182Z,9.90
2019-01-24T02:36:34.137Z,9.67
2019-01-24T02:39:00.127Z,11.37
2019-01-24T02:41:26.078Z,11.53
2019-01-24T02:43:52.073Z,11.23
2019-01-24T02:46:18.043Z,10.07
2019-01-24T02:48:44.031Z,10.77
2019-01-24T02:51:10.040Z,11.77
2019-01-24T02:53:36.023Z,10.90
2019-01-24T02:56:02.064Z,11.03
2019-01-24T02:58:28.023Z,9.53
2019-01-24T03:00:54.024Z,12.13
2019-01-24T03:03:20.000Z,10.50
2019-01-24T03:05:46.731Z,10.77
2019-01-24T03:08:13.425Z,11.30
2019-01-24T03:10:39.449Z,9.07
2019-01-24T03:13:05.407Z,11.80
2019-01-24T03:15:31.428Z,11.07
2019-01-24T03:17:57.377Z,10.37
2019-01-24T03:20:24.098Z,13.87
2019-01-24T03:22:50.056Z,10.30
2019-01-24T03:25:16.035Z,10.90
2019-01-24T03:27:42.811Z,10.03
2019-01-24T03:30:09.515Z,11.33
2019-01-24T03:32:35.502Z,11.87
2019-01-24T03:35:04.475Z,9.90
2019-01-24T03:37:27.541Z,8.50
2019-01-24T03:39:53.538Z,11.33
2019-01-24T03:42:20.321Z,10.87
2019-01-24T03:44:46.302Z,11.10
2019-01-24T03:47:12.333Z,11.40
2019-01-24T03:49:38.302Z,9.23
2019-01-24T03:52:04.272Z,10.83
2019-01-24T03:54:30.967Z,11.07
2019-01-24T03:56:56.985Z,13.00
2019-01-24T03:59:22.941Z,9.63
2019-01-24T04:01:48.898Z,12.23
2019-01-24T04:04:14.885Z,11.47
2019-01-24T04:06:40.857Z,10.00
2019-01-24T04:09:06.875Z,11.53
2019-01-24T04:11:32.878Z,7.90
2019-01-24T04:13:58.885Z,7.40
2019-01-24T04:16:25.626Z,7.80
2019-01-24T04:18:52.394Z,8.63
2019-01-24T04:21:18.413Z,9.40
2019-01-24T04:23:44.405Z,8.37
2019-01-24T04:26:10.355Z,10.57
2019-01-24T04:28:36.358Z,7.63
2019-01-24T04:31:03.088Z,8.57
2019-01-24T04:33:29.082Z,9.50
2019-01-24T04:35:55.071Z,9.63
2019-01-24T04:38:21.083Z,10.63
2019-01-24T04:40:47.095Z,9.43
2019-01-24T04:43:13.805Z,10.83
2019-01-24T04:45:39.760Z,10.93
2019-01-24T04:48:06.490Z,8.97
2019-01-24T04:50:33.206Z,10.70
2019-01-24T04:52:59.200Z,8.70
2019-01-24T04:55:25.170Z,8.80
2019-01-24T04:57:51.158Z,10.40
2019-01-24T05:00:17.169Z,9.27
2019-01-24T05:02:43.149Z,9.87
2019-01-24T05:05:09.883Z,10.40
2019-01-24T05:07:35.833Z,9.30
2019-01-24T05:10:02.389Z,10.33
2019-01-24T05:12:27.913Z,10.50
2019-01-24T05:14:53.927Z,9.43
2019-01-24T05:17:19.891Z,10.07
2019-01-24T05:19:45.869Z,11.50
2019-01-24T05:22:11.857Z,10.77
2019-01-24T05:24:38.564Z,11.97
2019-01-24T05:27:04.584Z,9.27
2019-01-24T05:29:30.583Z,8.90
2019-01-24T05:31:56.592Z,9.67
2019-01-24T05:34:22.563Z,10.30
2019-01-24T05:36:48.538Z,10.70
2019-01-24T05:39:14.547Z,10.77
2019-01-24T05:41:40.596Z,10.27
2019-01-24T05:44:06.557Z,9.57
2019-01-24T05:46:32.542Z,9.83
2019-01-24T05:48:58.517Z,10.73
2019-01-24T05:51:25.255Z,11.73
2019-01-24T05:53:51.229Z,9.27
2019-01-24T05:56:17.184Z,9.20
2019-01-24T05:58:43.176Z,10.97
2019-01-24T06:01:09.379Z,9.40
2019-01-24T06:03:35.448Z,10.67
2019-01-24T06:06:01.449Z,10.83
2019-01-24T06:08:27.463Z,9.17
2019-01-24T06:10:53.445Z,10.20
2019-01-24T06:13:20.203Z,10.83
2019-01-24T06:15:46.201Z,10.63
2019-01-24T06:18:12.182Z,11.83
2019-01-24T06:20:38.174Z,9.27
2019-01-24T06:23:04.167Z,9.53
2019-01-24T06:25:30.159Z,10.43
2019-01-24T06:27:56.122Z,8.37
2019-01-24T06:30:22.875Z,10.87
2019-01-24T06:32:49.585Z,12.17
2019-01-24T06:35:15.584Z,13.33
2019-01-24T06:37:41.570Z,9.43
2019-01-24T06:40:08.325Z,10.03
2019-01-24T06:42:34.308Z,9.77
2019-01-24T06:45:00.332Z,12.47
2019-01-24T06:47:27.295Z,11.83
2019-01-24T06:49:53.411Z,11.63
2019-01-24T06:52:20.159Z,10.77
2019-01-24T06:54:46.898Z,10.23
2019-01-24T06:57:13.657Z,11.77
2019-01-24T06:59:39.695Z,11.10
2019-01-24T07:02:05.777Z,9.20
2019-01-24T07:04:32.510Z,15.60
2019-01-24T07:06:58.505Z,10.70
2019-01-24T07:09:24.497Z,9.13
2019-01-24T07:11:50.516Z,9.63
2019-01-24T07:14:16.507Z,11.70
2019-01-24T07:16:42.513Z,9.23
2019-01-24T07:19:08.494Z,8.70
2019-01-24T07:21:34.487Z,9.40
2019-01-24T07:24:01.210Z,9.23
2019-01-24T07:26:27.211Z,7.43
2019-01-24T07:28:53.205Z,10.17
2019-01-24T07:31:19.224Z,9.00
2019-01-24T07:33:45.245Z,9.83
2019-01-24T07:36:11.235Z,10.30
2019-01-24T07:38:37.254Z,10.37
2019-01-24T07:41:03.231Z,9.67
2019-01-24T07:43:29.256Z,8.83
2019-01-24T07:45:55.237Z,10.10
2019-01-24T07:48:22.002Z,7.60
2019-01-24T07:50:47.972Z,9.03
2019-01-24T07:53:13.996Z,11.60
2019-01-24T07:55:39.974Z,8.40
2019-01-24T07:58:05.984Z,10.37
2019-01-24T08:00:32.706Z,11.43
2019-01-24T08:02:59.491Z,9.57
2019-01-24T08:05:25.494Z,10.77
2019-01-24T08:07:51.523Z,10.33
2019-01-24T08:10:17.521Z,10.23
2019-01-24T08:12:44.285Z,9.70
2019-01-24T08:15:10.281Z,10.17
2019-01-24T08:17:36.980Z,10.83
2019-01-24T08:20:03.001Z,8.63
2019-01-24T08:22:28.985Z,13.10
2019-01-24T08:24:55.003Z,10.30
2019-01-24T08:27:21.735Z,10.03
2019-01-24T08:29:48.505Z,10.03
2019-01-24T08:32:14.479Z,10.03
2019-01-24T08:34:40.490Z,10.40
2019-01-24T08:37:06.468Z,12.03
2019-01-24T08:39:33.198Z,11.03
2019-01-24T08:41:59.173Z,11.30
2019-01-24T08:44:25.187Z,11.57
2019-01-24T08:46:51.170Z,11.87
2019-01-24T08:49:17.144Z,10.53
2019-01-24T08:51:43.165Z,12.00
2019-01-24T08:54:09.174Z,11.80
2019-01-24T08:56:35.172Z,11.40
2019-01-24T08:59:01.147Z,12.53
2019-01-24T09:01:27.167Z,11.70
2019-01-24T09:03:53.133Z,9.80
2019-01-24T09:06:22.718Z,9.07
2019-01-24T09:08:45.937Z,10.77
2019-01-24T09:11:11.967Z,13.30
2019-01-24T09:13:37.945Z,11.80
2019-01-24T09:16:04.702Z,11.83
2019-01-24T09:18:30.662Z,12.27
2019-01-24T09:20:56.961Z,13.63
2019-01-24T09:23:23.436Z,12.70
2019-01-24T09:25:49.415Z,12.40
2019-01-24T09:28:15.418Z,14.10
2019-01-24T09:30:42.167Z,11.80
2019-01-24T09:33:08.176Z,10.97
2019-01-24T09:35:34.910Z,11.30
2019-01-24T09:38:01.664Z,10.30
2019-01-24T09:40:28.395Z,12.03
2019-01-24T09:42:55.180Z,13.33
2019-01-24T09:45:21.163Z,18.00
2019-01-24T09:47:47.894Z,13.20
2019-01-24T09:50:14.608Z,15.23
2019-01-24T09:52:40.627Z,16.80
2019-01-24T09:55:06.610Z,13.27
2019-01-24T09:57:32.612Z,12.33
2019-01-24T09:59:58.599Z,14.63
2019-01-24T10:02:24.586Z,11.20
2019-01-24T10:04:50.575Z,13.00
2019-01-24T10:07:17.298Z,10.93
2019-01-24T10:09:44.054Z,15.27
2019-01-24T10:12:10.799Z,12.27
2019-01-24T10:14:36.791Z,12.00
2019-01-24T10:17:02.784Z,16.53
2019-01-24T10:19:28.784Z,11.13
2019-01-24T10:21:55.506Z,11.93
2019-01-24T10:24:22.262Z,11.20
2019-01-24T10:26:48.262Z,13.63
2019-01-24T10:29:15.018Z,17.97
2019-01-24T10:31:41.746Z,12.57
2019-01-24T10:34:08.513Z,14.07
2019-01-24T10:36:34.540Z,11.50
2019-01-24T10:39:00.510Z,13.50
2019-01-24T10:41:26.507Z,10.77
2019-01-24T10:43:52.498Z,10.97
2019-01-24T10:46:18.518Z,9.70
2019-01-24T10:48:45.228Z,12.80
2019-01-24T10:51:11.236Z,12.07
2019-01-24T10:53:37.220Z,13.07
2019-01-24T10:56:03.250Z,11.10
2019-01-24T10:58:29.246Z,11.33
2019-01-24T11:00:55.982Z,13.07
2019-01-24T11:03:22.711Z,11.43
2019-01-24T11:05:49.462Z,12.13
2019-01-24T11:08:16.198Z,10.83
2019-01-24T11:10:42.242Z,9.87
2019-01-24T11:13:08.253Z,9.57
2019-01-24T11:15:35.556Z,11.80
2019-01-24T11:18:01.094Z,8.33
2019-01-24T11:20:27.100Z,11.47
2019-01-24T11:22:53.116Z,10.07
2019-01-24T11:25:19.113Z,11.13
2019-01-24T11:27:45.134Z,9.93
2019-01-24T11:30:11.135Z,10.97
2019-01-24T11:32:37.885Z,11.07
2019-01-24T11:35:04.597Z,10.33
2019-01-24T11:37:30.629Z,12.37
2019-01-24T11:39:57.368Z,11.07
2019-01-24T11:42:23.397Z,9.80
2019-01-24T11:44:50.112Z,12.07
2019-01-24T11:47:16.119Z,10.17
2019-01-24T11:49:42.128Z,12.43
2019-01-24T11:52:08.111Z,11.43
2019-01-24T11:54:34.875Z,12.47
2019-01-24T11:57:00.881Z,8.63
2019-01-24T11:59:26.916Z,12.33
2019-01-24T12:01:52.903Z,9.40
2019-01-24T12:04:18.919Z,10.63
2019-01-24T12:06:44.895Z,10.77
2019-01-24T12:09:10.896Z,11.67
2019-01-24T12:11:37.606Z,10.33
2019-01-24T12:14:03.580Z,10.33
2019-01-24T12:16:29.586Z,11.27
2019-01-24T12:18:56.318Z,8.97
2019-01-24T12:21:23.038Z,11.23
2019-01-24T12:23:49.059Z,9.33
2019-01-24T12:26:15.097Z,11.90
2019-01-24T12:28:41.176Z,12.03
2019-01-24T12:31:07.156Z,12.20
2019-01-24T12:33:33.170Z,12.27
2019-01-24T12:35:59.902Z,10.20
2019-01-24T12:38:25.889Z,11.83
2019-01-24T12:40:52.606Z,10.93
2019-01-24T12:43:18.586Z,10.03
2019-01-24T12:45:44.592Z,11.70
2019-01-24T12:48:10.570Z,8.10
2019-01-24T12:50:36.581Z,10.33
2019-01-24T12:53:03.289Z,10.23
2019-01-24T12:55:29.320Z,10.13
2019-01-24T12:57:55.321Z,12.17
2019-01-24T13:00:21.407Z,10.03
2019-01-24T13:02:47.431Z,10.13
2019-01-24T13:05:13.462Z,8.53
2019-01-24T13:07:39.463Z,10.77
2019-01-24T13:10:06.192Z,10.07
2019-01-24T13:12:32.221Z,9.97
2019-01-24T13:14:58.226Z,12.43
2019-01-24T13:17:24.247Z,9.13
2019-01-24T13:19:50.240Z,10.47
2019-01-24T13:22:16.264Z,9.37
2019-01-24T13:24:42.261Z,11.80
2019-01-24T13:27:08.262Z,9.30
2019-01-24T13:29:34.225Z,9.67
2019-01-24T13:32:00.228Z,10.17
2019-01-24T13:34:26.204Z,8.57
2019-01-24T13:36:52.198Z,8.43
2019-01-24T13:39:18.179Z,9.93
2019-01-24T13:41:44.965Z,10.00
2019-01-24T13:44:10.955Z,10.03
2019-01-24T13:46:36.938Z,10.20
2019-01-24T13:49:02.943Z,12.10
2019-01-24T13:51:28.913Z,11.17
2019-01-24T13:53:54.939Z,7.00
2019-01-24T13:56:20.956Z,10.40
2019-01-24T13:58:46.985Z,11.90
2019-01-24T14:01:13.002Z,10.70
2019-01-24T14:03:42.337Z,10.97
2019-01-24T14:06:06.605Z,9.90
2019-01-24T14:08:32.619Z,8.77
2019-01-24T14:10:58.639Z,9.70
2019-01-24T14:13:24.652Z,9.07
2019-01-24T14:15:51.396Z,10.57
2019-01-24T14:18:17.398Z,6.90
2019-01-24T14:20:43.412Z,8.97
2019-01-24T14:23:09.378Z,10.43
2019-01-24T14:25:35.388Z,6.57
2019-01-24T14:28:01.351Z,9.50
2019-01-24T14:30:27.380Z,9.03
2019-01-24T14:32:53.345Z,10.03
2019-01-24T14:35:20.126Z,8.67
2019-01-24T14:37:46.106Z,8.70
2019-01-24T14:40:19.844Z,10.10
2019-01-24T14:42:46.671Z,7.30
2019-01-24T14:45:12.791Z,8.30
2019-01-24T14:47:38.806Z,9.03
2019-01-24T14:50:04.810Z,8.20
2019-01-24T14:52:30.788Z,9.10
2019-01-24T14:54:56.788Z,7.60
2019-01-24T14:57:22.769Z,8.40
2019-01-24T14:59:48.776Z,7.27
2019-01-24T15:02:14.796Z,8.97
2019-01-24T15:04:40.801Z,7.70
2019-01-24T15:07:06.818Z,7.73
2019-01-24T15:09:33.525Z,7.13
2019-01-24T15:11:59.551Z,7.50
2019-01-24T15:14:25.535Z,6.20
2019-01-24T15:16:51.546Z,6.90
2019-01-24T15:19:17.571Z,8.03
2019-01-24T15:21:43.611Z,6.00
2019-01-24T15:24:09.649Z,8.10
2019-01-24T15:26:35.679Z,6.63
2019-01-24T15:29:01.661Z,9.87
2019-01-24T15:31:27.646Z,6.77
2019-01-24T15:33:53.665Z,7.60
2019-01-24T15:36:19.656Z,8.93
2019-01-24T15:38:45.714Z,6.30
2019-01-24T15:41:12.770Z,9.37
2019-01-24T15:43:38.560Z,8.00
2019-01-24T15:46:04.550Z,7.87
2019-01-24T15:48:30.572Z,8.17
2019-01-24T15:50:56.578Z,7.80
2019-01-24T15:53:23.333Z,7.90
2019-01-24T15:55:49.320Z,7.77
2019-01-24T15:58:16.077Z,8.63
2019-01-24T16:00:42.834Z,7.03
2019-01-24T16:03:08.875Z,7.17
2019-01-24T16:05:34.857Z,6.60
2019-01-24T16:08:02.088Z,6.03
2019-01-24T16:10:27.700Z,6.57
2019-01-24T16:12:54.454Z,6.67
2019-01-24T16:15:20.468Z,8.47
2019-01-24T16:17:47.229Z,6.13
2019-01-24T16:20:14.005Z,8.37
2019-01-24T16:22:40.007Z,8.93
2019-01-24T16:25:06.012Z,8.30
2019-01-24T16:27:32.745Z,7.07
2019-01-24T16:29:59.539Z,9.03
2019-01-24T16:32:25.539Z,8.27
2019-01-24T16:34:51.695Z,7.43
2019-01-24T16:37:17.589Z,8.73
2019-01-24T16:39:43.593Z,7.57
2019-01-24T16:42:10.354Z,5.77
2019-01-24T16:44:36.352Z,6.97
2019-01-24T16:47:02.343Z,7.97
2019-01-24T16:49:28.329Z,6.67
2019-01-24T16:51:54.342Z,7.20
2019-01-24T16:54:20.345Z,7.97
2019-01-24T16:56:47.109Z,7.53
2019-01-24T16:59:13.839Z,6.67
2019-01-24T17:01:40.581Z,4.63
2019-01-24T17:04:07.311Z,6.67
2019-01-24T17:06:34.075Z,7.00
2019-01-24T17:09:00.807Z,7.57
2019-01-24T17:11:26.838Z,7.77
2019-01-24T17:13:53.536Z,7.57
2019-01-24T17:16:19.535Z,7.63
2019-01-24T17:18:45.513Z,7.33
2019-01-24T17:21:11.647Z,6.47
2019-01-24T17:23:37.780Z,5.83
2019-01-24T17:26:03.791Z,6.87
2019-01-24T17:28:29.788Z,7.40
2019-01-24T17:30:55.793Z,6.80
2019-01-24T17:33:21.823Z,6.00
2019-01-24T17:35:47.826Z,6.67
2019-01-24T17:38:15.433Z,6.83
2019-01-24T17:40:39.924Z,8.00
2019-01-24T17:43:05.959Z,7.60
2019-01-24T17:45:32.117Z,8.73
2019-01-24T17:47:58.032Z,7.53
2019-01-24T17:50:24.028Z,7.20
2019-01-24T17:52:50.749Z,7.20
2019-01-24T17:55:16.766Z,9.07
2019-01-24T17:57:42.751Z,7.47
2019-01-24T18:00:08.792Z,8.07
2019-01-24T18:02:34.839Z,6.63
2019-01-24T18:05:01.649Z,9.20
2019-01-24T18:07:27.661Z,6.80
2019-01-24T18:09:53.868Z,8.27
2019-01-24T18:12:20.644Z,6.37
2019-01-24T18:14:46.721Z,4.60
2019-01-24T18:17:12.766Z,5.90
2019-01-24T18:19:38.800Z,6.53
2019-01-24T18:22:05.529Z,7.90
2019-01-24T18:24:32.348Z,6.23
2019-01-24T18:26:58.439Z,7.00
2019-01-24T18:29:24.471Z,6.93
2019-01-24T18:31:50.434Z,7.97
2019-01-24T18:34:17.158Z,7.50
2019-01-24T18:36:43.930Z,6.93
2019-01-24T18:39:09.925Z,8.80
2019-01-24T18:41:36.675Z,9.77
2019-01-24T18:44:03.382Z,6.40
2019-01-24T18:46:29.385Z,7.40
2019-01-24T18:48:55.391Z,5.10
2019-01-24T18:51:21.409Z,7.60
2019-01-24T18:53:47.413Z,7.77
2019-01-24T18:56:13.477Z,7.43
2019-01-24T18:58:39.430Z,6.00
2019-01-24T19:01:05.421Z,7.23
2019-01-24T19:03:31.471Z,7.77
2019-01-24T19:05:57.465Z,7.40
2019-01-24T19:08:23.531Z,6.57
2019-01-24T19:10:49.520Z,5.93
2019-01-24T19:13:15.548Z,8.63
2019-01-24T19:15:41.534Z,7.13
2019-01-24T19:18:07.571Z,7.27
2019-01-24T19:20:33.609Z,6.40
2019-01-24T19:22:59.653Z,6.80
2019-01-24T19:25:25.644Z,7.53
2019-01-24T19:27:51.686Z,7.20
2019-01-24T19:30:17.707Z,7.43
2019-01-24T19:32:43.734Z,6.60
2019-01-24T19:35:09.750Z,5.73
2019-01-24T19:37:35.777Z,6.90
2019-01-24T19:40:01.806Z,8.50
2019-01-24T19:42:27.815Z,8.07
2019-01-24T19:44:53.844Z,6.90
2019-01-24T19:47:19.868Z,6.80
2019-01-24T19:49:45.889Z,7.27
2019-01-24T19:52:11.926Z,7.43
2019-01-24T19:54:37.936Z,6.80
2019-01-24T19:57:03.962Z,7.97
2019-01-24T19:59:30.018Z,5.47
2019-01-24T20:01:56.010Z,8.13
2019-01-24T20:04:22.034Z,8.27
2019-01-24T20:06:49.256Z,9.10
2019-01-24T20:09:14.085Z,7.27
2019-01-24T20:11:40.107Z,8.00
2019-01-24T20:14:06.162Z,8.87
2019-01-24T20:16:32.146Z,7.63
2019-01-24T20:18:58.164Z,7.13
2019-01-24T20:21:24.223Z,7.70
2019-01-24T20:23:50.238Z,8.27
2019-01-24T20:26:16.291Z,6.70
2019-01-24T20:28:42.335Z,7.37
2019-01-24T20:31:09.119Z,7.43
2019-01-24T20:33:35.170Z,5.97
2019-01-24T20:36:01.201Z,6.63
2019-01-24T20:38:27.224Z,7.53
2019-01-24T20:40:53.252Z,7.07
2019-01-24T20:43:20.038Z,7.00
2019-01-24T20:45:46.826Z,6.67
2019-01-24T20:48:12.856Z,7.97
2019-01-24T20:50:38.887Z,7.47
2019-01-24T20:53:05.659Z,6.80
2019-01-24T20:55:31.700Z,8.23
2019-01-24T20:57:57.720Z,5.93
2019-01-24T21:00:23.837Z,5.77
2019-01-24T21:02:49.950Z,6.47
2019-01-24T21:05:15.979Z,7.27
2019-01-24T21:07:42.107Z,7.73
2019-01-24T21:10:08.846Z,7.33
2019-01-24T21:12:34.896Z,8.60
2019-01-24T21:15:00.984Z,7.93
2019-01-24T21:17:27.091Z,7.93
2019-01-24T21:19:53.851Z,6.83
2019-01-24T21:22:19.872Z,7.30
2019-01-24T21:24:46.693Z,7.30
2019-01-24T21:27:12.709Z,7.37
2019-01-24T21:29:39.533Z,6.20
2019-01-24T21:32:05.630Z,6.53
2019-01-24T21:34:33.343Z,7.10
2019-01-24T21:36:57.838Z,6.90
2019-01-24T21:39:24.681Z,6.63
2019-01-24T21:41:50.668Z,6.67
2019-01-24T21:44:16.819Z,4.63
2019-01-24T21:46:42.984Z,7.83
2019-01-24T21:49:09.804Z,7.80
2019-01-24T21:51:35.830Z,7.17
2019-01-24T21:54:02.632Z,8.20
2019-01-24T21:56:28.646Z,7.20
2019-01-24T21:58:54.706Z,6.30
2019-01-24T22:01:20.759Z,5.80
2019-01-24T22:03:47.569Z,6.00
2019-01-24T22:06:13.604Z,6.13
2019-01-24T22:08:39.628Z,7.40
2019-01-24T22:11:05.648Z,7.00
2019-01-24T22:13:31.696Z,6.83
2019-01-24T22:15:58.469Z,7.40
2019-01-24T22:18:24.504Z,7.67
2019-01-24T22:20:55.560Z,6.83
2019-01-24T22:23:17.392Z,7.93
2019-01-24T22:25:43.390Z,6.90
2019-01-24T22:28:10.255Z,7.27
2019-01-24T22:30:36.319Z,7.90
2019-01-24T22:33:03.088Z,7.90
2019-01-24T22:35:29.154Z,7.47
2019-01-24T22:37:55.177Z,6.33
2019-01-24T22:40:21.223Z,8.10
2019-01-24T22:42:47.266Z,5.90
2019-01-24T22:45:14.025Z,7.43
2019-01-24T22:47:40.022Z,8.50
2019-01-24T22:50:06.830Z,7.10
2019-01-24T22:52:32.855Z,7.13
2019-01-24T22:54:58.832Z,7.50
2019-01-24T22:57:24.889Z,9.83
2019-01-24T22:59:50.886Z,7.33
2019-01-24T23:02:16.948Z,7.93
2019-01-24T23:04:43.005Z,6.53
2019-01-24T23:07:09.795Z,6.50
2019-01-24T23:09:35.808Z,8.33
2019-01-24T23:12:01.847Z,7.20
2019-01-24T23:14:27.856Z,9.57
2019-01-24T23:16:53.909Z,6.13
2019-01-24T23:19:19.919Z,8.13
2019-01-24T23:21:45.952Z,7.83
2019-01-24T23:24:11.988Z,6.67
2019-01-24T23:26:38.011Z,7.77
2019-01-24T23:29:04.049Z,8.30
2019-01-24T23:31:30.060Z,6.70
2019-01-24T23:33:56.838Z,7.90
2019-01-24T23:36:23.568Z,8.50
2019-01-24T23:38:50.335Z,7.70
2019-01-24T23:41:17.048Z,7.63
2019-01-24T23:43:43.809Z,5.87
2019-01-24T23:46:09.810Z,8.23
2019-01-24T23:48:35.842Z,7.00
2019-01-24T23:51:01.875Z,6.60
2019-01-24T23:53:28.614Z,7.20
2019-01-24T23:55:55.366Z,7.20
2019-01-24T23:58:21.373Z,8.03
